createdAt,value
2022-10-08T00:01:19.766Z,2.47
2022-10-08T00:03:56.625Z,2.80
2022-10-08T00:06:32.283Z,3.28
2022-10-08T00:09:08.047Z,2.80
2022-10-08T00:11:42.651Z,2.70
2022-10-08T00:14:16.412Z,2.45
2022-10-08T00:16:50.091Z,2.75
2022-10-08T00:19:25.134Z,2.80
2022-10-08T00:21:58.919Z,2.25
2022-10-08T00:24:32.900Z,2.50
2022-10-08T00:27:06.442Z,2.60
2022-10-08T00:29:41.035Z,2.17
2022-10-08T00:32:14.579Z,2.60
2022-10-08T00:34:49.628Z,1.90
2022-10-08T00:37:23.217Z,2.85
2022-10-08T00:39:56.974Z,3.05
2022-10-08T00:42:30.511Z,2.70
2022-10-08T00:45:05.678Z,3.00
2022-10-08T00:47:46.108Z,2.42
2022-10-08T00:50:26.348Z,2.47
2022-10-08T00:53:03.537Z,2.70
2022-10-08T00:55:43.548Z,2.72
2022-10-08T00:58:20.661Z,2.78
2022-10-08T01:00:54.874Z,2.75
2022-10-08T01:03:28.334Z,2.97
2022-10-08T01:06:12.773Z,2.15
2022-10-08T01:08:54.649Z,2.25
2022-10-08T01:11:44.844Z,2.80
2022-10-08T01:14:32.460Z,2.40
2022-10-08T01:17:13.700Z,2.95
2022-10-08T01:20:17.679Z,2.30
2022-10-08T01:23:42.997Z,2.40
2022-10-08T01:26:42.693Z,2.50
2022-10-08T01:29:23.171Z,2.70
2022-10-08T01:32:03.350Z,2.92
2022-10-08T01:34:42.522Z,4.18
2022-10-08T01:37:22.580Z,2.63
2022-10-08T01:39:59.829Z,2.67
2022-10-08T01:42:36.371Z,2.67
2022-10-08T01:45:16.607Z,2.40
2022-10-08T01:47:51.133Z,2.92
2022-10-08T01:50:29.777Z,2.97
2022-10-08T01:53:10.783Z,2.80
2022-10-08T01:55:49.094Z,2.40
2022-10-08T01:58:30.399Z,3.50
2022-10-08T02:01:11.410Z,2.85
2022-10-08T02:04:05.264Z,2.20
2022-10-08T02:06:42.916Z,3.10
2022-10-08T02:09:16.819Z,2.97
2022-10-08T02:11:50.367Z,3.05
2022-10-08T02:14:26.549Z,2.50
2022-10-08T02:17:10.745Z,2.60
2022-10-08T02:19:52.942Z,2.67
2022-10-08T02:22:33.229Z,2.50
2022-10-08T02:25:12.559Z,3.10
2022-10-08T02:27:55.103Z,2.83
2022-10-08T02:30:34.893Z,2.58
2022-10-08T02:33:14.007Z,2.72
2022-10-08T02:35:51.749Z,3.00
2022-10-08T02:38:31.386Z,3.00
2022-10-08T02:41:07.949Z,3.15
2022-10-08T02:43:47.004Z,3.58
2022-10-08T02:46:24.909Z,3.80
2022-10-08T02:49:03.807Z,4.53
2022-10-08T02:51:41.751Z,3.20
2022-10-08T02:54:16.875Z,3.42
2022-10-08T02:56:55.647Z,3.10
2022-10-08T02:59:29.554Z,3.03
2022-10-08T03:02:05.340Z,3.20
2022-10-08T03:04:44.030Z,3.25
2022-10-08T03:07:18.802Z,2.80
2022-10-08T03:09:54.635Z,3.47
2022-10-08T03:12:28.447Z,3.92
2022-10-08T03:15:02.442Z,3.08
2022-10-08T03:17:39.342Z,2.97
2022-10-08T03:20:15.227Z,2.58
2022-10-08T03:22:49.272Z,3.92
2022-10-08T03:25:23.071Z,2.67
2022-10-08T03:27:57.078Z,3.10
2022-10-08T03:30:30.671Z,2.60
2022-10-08T03:33:04.493Z,2.53
2022-10-08T03:35:45.605Z,2.80
2022-10-08T03:38:19.300Z,3.42
2022-10-08T03:40:56.273Z,3.03
2022-10-08T03:43:33.244Z,2.70
2022-10-08T03:46:07.472Z,3.45
2022-10-08T03:48:42.373Z,2.72
2022-10-08T03:51:18.328Z,2.83
2022-10-08T03:53:52.193Z,3.20
2022-10-08T03:56:25.934Z,4.25
2022-10-08T03:59:01.405Z,3.22
2022-10-08T04:01:34.926Z,3.78
2022-10-08T04:04:08.758Z,2.95
2022-10-08T04:06:43.567Z,3.97
2022-10-08T04:09:17.354Z,2.65
2022-10-08T04:11:50.909Z,3.50
2022-10-08T04:14:24.656Z,3.45
2022-10-08T04:16:58.339Z,3.35
2022-10-08T04:19:32.040Z,3.65
2022-10-08T04:22:06.964Z,3.58
2022-10-08T04:24:40.779Z,3.65
2022-10-08T04:27:14.347Z,3.53
2022-10-08T04:29:48.154Z,4.47
2022-10-08T04:32:21.655Z,3.20
2022-10-08T04:34:55.398Z,3.05
2022-10-08T04:37:30.518Z,3.08
2022-10-08T04:40:04.421Z,3.35
2022-10-08T04:42:37.883Z,3.25
2022-10-08T04:45:11.943Z,2.63
2022-10-08T04:47:45.464Z,3.67
2022-10-08T04:50:19.134Z,3.17
2022-10-08T04:52:54.025Z,3.38
2022-10-08T04:55:27.753Z,3.78
2022-10-08T04:58:01.527Z,3.03
2022-10-08T05:00:36.527Z,3.47
2022-10-08T05:03:10.124Z,4.05
2022-10-08T05:05:46.275Z,3.22
2022-10-08T05:08:21.141Z,2.92
2022-10-08T05:10:54.883Z,3.75
2022-10-08T05:13:28.818Z,3.28
2022-10-08T05:16:05.190Z,4.53
2022-10-08T05:18:39.727Z,3.90
2022-10-08T05:21:15.871Z,3.35
2022-10-08T05:23:54.946Z,3.65
2022-10-08T05:26:56.179Z,3.50
2022-10-08T05:29:24.138Z,3.28
2022-10-08T05:31:58.048Z,3.47
2022-10-08T05:34:31.567Z,3.40
2022-10-08T05:37:05.448Z,3.75
2022-10-08T05:39:40.340Z,3.30
2022-10-08T05:42:14.080Z,3.35
2022-10-08T05:44:47.724Z,3.60
2022-10-08T05:47:21.568Z,4.18
2022-10-08T05:49:55.076Z,3.00
2022-10-08T05:52:28.901Z,3.42
2022-10-08T05:55:03.825Z,3.42
2022-10-08T05:57:37.655Z,3.20
2022-10-08T06:00:12.634Z,2.78
2022-10-08T06:02:46.867Z,3.58
2022-10-08T06:05:20.573Z,3.38
2022-10-08T06:07:57.458Z,3.30
2022-10-08T06:10:33.916Z,3.33
2022-10-08T06:13:07.687Z,3.80
2022-10-08T06:15:41.255Z,3.22
2022-10-08T06:18:15.004Z,2.90
2022-10-08T06:20:48.431Z,2.90
2022-10-08T06:23:24.374Z,3.10
2022-10-08T06:26:02.432Z,2.67
2022-10-08T06:28:38.127Z,2.80
2022-10-08T06:31:12.820Z,3.28
2022-10-08T06:33:47.128Z,2.95
2022-10-08T06:36:23.580Z,3.20
2022-10-08T06:38:58.509Z,2.38
2022-10-08T06:41:35.018Z,3.25
2022-10-08T06:44:12.244Z,2.25
2022-10-08T06:46:46.406Z,3.10
2022-10-08T06:49:26.519Z,3.15
2022-10-08T06:52:00.247Z,2.80
2022-10-08T06:54:34.178Z,2.63
2022-10-08T06:57:08.984Z,3.47
2022-10-08T06:59:42.813Z,3.00
2022-10-08T07:02:16.427Z,2.90
2022-10-08T07:04:50.149Z,2.60
2022-10-08T07:07:23.787Z,3.38
2022-10-08T07:09:57.655Z,3.53
2022-10-08T07:12:32.899Z,3.78
2022-10-08T07:15:08.940Z,3.30
2022-10-08T07:17:42.479Z,3.05
2022-10-08T07:20:16.501Z,3.30
2022-10-08T07:22:50.283Z,2.72
2022-10-08T07:25:24.330Z,2.22
2022-10-08T07:27:59.253Z,2.30
2022-10-08T07:30:33.065Z,5.93
2022-10-08T07:33:06.573Z,3.08
2022-10-08T07:35:40.281Z,2.67
2022-10-08T07:38:13.824Z,2.55
2022-10-08T07:40:48.575Z,2.38
2022-10-08T07:43:23.606Z,2.90
2022-10-08T07:45:57.484Z,2.72
2022-10-08T07:48:34.011Z,2.60
2022-10-08T07:51:12.723Z,3.47
2022-10-08T07:53:46.533Z,2.75
2022-10-08T07:56:21.642Z,2.60
2022-10-08T07:58:56.774Z,3.35
2022-10-08T08:01:32.774Z,2.65
2022-10-08T08:04:10.538Z,2.42
2022-10-08T08:06:47.426Z,2.38
2022-10-08T08:09:21.159Z,2.13
2022-10-08T08:11:55.211Z,2.58
2022-10-08T08:14:30.178Z,2.60
2022-10-08T08:17:03.976Z,2.63
2022-10-08T08:19:40.164Z,2.42
2022-10-08T08:22:13.945Z,2.20
2022-10-08T08:24:47.477Z,2.10
2022-10-08T08:27:22.096Z,1.88
2022-10-08T08:29:57.032Z,1.95
2022-10-08T08:32:31.266Z,2.13
2022-10-08T08:35:05.232Z,1.75
2022-10-08T08:37:39.031Z,2.00
2022-10-08T08:40:12.970Z,2.40
2022-10-08T08:42:54.658Z,2.38
2022-10-08T08:45:47.720Z,1.67
2022-10-08T08:48:25.052Z,2.50
2022-10-08T08:50:59.467Z,2.58
2022-10-08T08:53:34.733Z,2.40
2022-10-08T08:56:12.867Z,2.13
2022-10-08T08:58:52.576Z,1.90
2022-10-08T09:01:33.244Z,2.15
2022-10-08T09:04:12.904Z,1.88
2022-10-08T09:06:47.305Z,1.92
2022-10-08T09:09:27.550Z,2.00
2022-10-08T09:12:04.086Z,1.55
2022-10-08T09:14:41.981Z,1.95
2022-10-08T09:17:19.144Z,1.95
2022-10-08T09:19:52.921Z,1.48
2022-10-08T09:22:29.778Z,1.40
2022-10-08T09:25:07.162Z,2.08
2022-10-08T09:27:45.666Z,2.53
2022-10-08T09:30:38.096Z,2.00
2022-10-08T09:33:25.591Z,1.33
2022-10-08T09:35:59.624Z,1.65
2022-10-08T09:38:37.988Z,1.50
2022-10-08T09:41:19.741Z,1.60
2022-10-08T09:44:12.212Z,1.70
2022-10-08T09:46:46.617Z,1.77
2022-10-08T09:49:33.332Z,1.90
2022-10-08T09:52:16.953Z,1.45
2022-10-08T09:54:54.734Z,2.08
2022-10-08T09:57:30.668Z,1.25
2022-10-08T10:00:07.123Z,1.85
2022-10-08T10:02:40.944Z,1.23
2022-10-08T10:05:23.952Z,1.40
2022-10-08T10:07:58.535Z,1.23
2022-10-08T10:10:36.395Z,0.85
2022-10-08T10:13:15.167Z,1.70
2022-10-08T10:15:53.696Z,0.90
2022-10-08T10:18:33.551Z,1.20
2022-10-08T10:21:15.153Z,1.15
2022-10-08T10:23:57.249Z,1.23
2022-10-08T10:26:36.043Z,1.27
2022-10-08T10:29:15.573Z,1.10
2022-10-08T10:31:54.454Z,1.13
2022-10-08T10:34:30.336Z,0.90
2022-10-08T10:37:09.389Z,1.20
2022-10-08T10:39:51.886Z,1.10
2022-10-08T10:42:34.132Z,1.23
2022-10-08T10:45:19.469Z,1.20
2022-10-08T10:47:54.886Z,1.13
2022-10-08T10:50:37.674Z,1.20
2022-10-08T10:53:20.429Z,1.67
2022-10-08T10:56:04.575Z,1.17
2022-10-08T10:58:49.364Z,1.35
2022-10-08T11:01:32.210Z,1.02
2022-10-08T11:04:11.322Z,1.00
2022-10-08T11:07:03.206Z,1.10
2022-10-08T11:09:45.197Z,1.35
2022-10-08T11:12:29.674Z,0.93
2022-10-08T11:15:13.075Z,0.98
2022-10-08T11:18:02.926Z,2.60
2022-10-08T11:20:45.067Z,0.90
2022-10-08T11:23:34.424Z,1.08
2022-10-08T11:26:22.745Z,2.30
2022-10-08T11:29:07.278Z,2.28
2022-10-08T11:31:43.551Z,1.40
2022-10-08T11:34:23.263Z,1.30
2022-10-08T11:37:04.874Z,1.00
2022-10-08T11:39:48.480Z,0.60
2022-10-08T11:42:28.846Z,1.30
2022-10-08T11:45:16.801Z,0.80
2022-10-08T11:47:53.489Z,0.80
2022-10-08T11:50:31.238Z,0.40
2022-10-08T11:53:18.540Z,0.40
2022-10-08T11:55:55.137Z,0.70
2022-10-08T11:58:33.094Z,0.60
2022-10-08T12:01:08.717Z,0.82
2022-10-08T12:03:43.494Z,0.70
2022-10-08T12:06:24.347Z,0.60
2022-10-08T12:08:59.050Z,1.33
2022-10-08T12:11:53.543Z,0.73
2022-10-08T12:14:47.013Z,1.05
2022-10-08T12:17:20.770Z,1.52
2022-10-08T12:20:19.272Z,1.00
2022-10-08T12:23:01.632Z,1.50
2022-10-08T12:25:38.508Z,0.60
2022-10-08T12:28:50.398Z,0.77
2022-10-08T12:31:33.323Z,0.60
2022-10-08T12:34:17.683Z,1.00
2022-10-08T12:37:03.038Z,1.00
2022-10-08T12:39:39.097Z,0.70
2022-10-08T12:42:19.727Z,0.75
2022-10-08T12:45:06.721Z,0.68
2022-10-08T12:47:49.871Z,1.00
2022-10-08T12:50:47.608Z,1.70
2022-10-08T12:53:21.606Z,1.20
2022-10-08T12:55:59.326Z,1.33
2022-10-08T12:58:37.452Z,1.50
2022-10-08T13:01:17.041Z,1.00
2022-10-08T13:04:10.534Z,0.90
2022-10-08T13:06:44.311Z,0.80
2022-10-08T13:09:30.082Z,1.00
2022-10-08T13:12:06.083Z,2.78
2022-10-08T13:14:40.452Z,1.25
2022-10-08T13:17:28.699Z,1.85
2022-10-08T13:20:15.572Z,1.10
2022-10-08T13:22:49.541Z,1.15
2022-10-08T13:25:36.769Z,1.13
2022-10-08T13:28:13.445Z,1.50
2022-10-08T13:30:47.369Z,1.52
2022-10-08T13:33:24.776Z,1.10
2022-10-08T13:36:02.553Z,1.60
2022-10-08T13:38:37.387Z,1.75
2022-10-08T13:41:23.611Z,1.50
2022-10-08T13:43:57.707Z,1.15
2022-10-08T13:46:31.629Z,1.60
2022-10-08T13:49:17.930Z,0.93
2022-10-08T13:51:53.561Z,1.33
2022-10-08T13:54:30.205Z,1.20
2022-10-08T13:57:03.812Z,1.20
2022-10-08T13:59:37.932Z,1.55
2022-10-08T14:02:14.124Z,1.38
2022-10-08T14:04:48.476Z,0.82
2022-10-08T14:07:28.557Z,1.42
2022-10-08T14:10:03.741Z,0.95
2022-10-08T14:12:37.390Z,0.80
2022-10-08T14:15:13.734Z,0.95
2022-10-08T14:17:49.442Z,1.20
2022-10-08T14:20:23.500Z,1.10
2022-10-08T14:22:58.349Z,2.25
2022-10-08T14:25:32.238Z,1.42
2022-10-08T14:28:05.909Z,1.25
2022-10-08T14:30:39.675Z,1.20
2022-10-08T14:33:13.269Z,1.65
2022-10-08T14:35:47.045Z,1.42
2022-10-08T14:38:22.104Z,1.60
2022-10-08T14:40:55.819Z,1.02
2022-10-08T14:43:29.319Z,1.60
2022-10-08T14:46:03.449Z,2.00
2022-10-08T14:48:39.080Z,1.38
2022-10-08T14:51:13.494Z,1.40
2022-10-08T14:53:49.328Z,2.03
2022-10-08T14:56:23.454Z,1.60
2022-10-08T14:58:56.972Z,2.10
2022-10-08T15:01:31.220Z,1.92
2022-10-08T15:04:04.963Z,2.55
2022-10-08T15:06:38.860Z,1.67
2022-10-08T15:09:15.364Z,1.75
2022-10-08T15:11:49.211Z,2.03
2022-10-08T15:14:23.821Z,1.45
2022-10-08T15:16:57.615Z,1.40
2022-10-08T15:19:31.517Z,1.80
2022-10-08T15:22:05.581Z,1.85
2022-10-08T15:24:40.447Z,1.65
2022-10-08T15:27:17.318Z,2.17
2022-10-08T15:29:54.008Z,2.03
2022-10-08T15:32:30.543Z,2.53
2022-10-08T15:35:04.509Z,1.80
2022-10-08T15:37:38.270Z,1.55
2022-10-08T15:40:13.119Z,2.47
2022-10-08T15:42:52.215Z,2.13
2022-10-08T15:45:25.851Z,2.20
2022-10-08T15:47:59.854Z,1.77
2022-10-08T15:50:33.480Z,1.60
2022-10-08T15:53:07.726Z,1.48
2022-10-08T15:55:42.580Z,1.98
2022-10-08T15:58:27.549Z,1.45
2022-10-08T16:01:11.476Z,1.13
2022-10-08T16:03:46.724Z,1.73
2022-10-08T16:06:21.964Z,1.50
2022-10-08T16:08:57.487Z,1.20
2022-10-08T16:11:34.253Z,1.20
2022-10-08T16:14:10.814Z,2.13
2022-10-08T16:16:45.264Z,2.53
2022-10-08T16:19:21.057Z,1.90
2022-10-08T16:21:57.062Z,2.00
2022-10-08T16:24:30.891Z,2.40
2022-10-08T16:27:05.877Z,1.30
2022-10-08T16:29:39.605Z,1.75
2022-10-08T16:32:13.166Z,1.40
2022-10-08T16:34:59.281Z,2.17
2022-10-08T16:37:32.931Z,1.70
2022-10-08T16:40:07.602Z,2.30
2022-10-08T16:42:42.508Z,2.42
2022-10-08T16:45:16.587Z,1.92
2022-10-08T16:47:50.147Z,2.97
2022-10-08T16:50:23.929Z,1.95
2022-10-08T16:52:57.449Z,2.30
2022-10-08T16:55:31.226Z,1.52
2022-10-08T16:58:06.620Z,2.10
2022-10-08T17:00:40.682Z,1.55
2022-10-08T17:03:14.487Z,1.63
2022-10-08T17:05:48.195Z,1.75
2022-10-08T17:08:21.756Z,1.60
2022-10-08T17:10:55.747Z,1.60
2022-10-08T17:13:30.718Z,1.60
2022-10-08T17:16:07.340Z,1.65
2022-10-08T17:18:40.973Z,1.90
2022-10-08T17:21:16.026Z,1.38
2022-10-08T17:23:50.128Z,1.80
2022-10-08T17:26:25.424Z,1.55
2022-10-08T17:29:05.237Z,2.90
2022-10-08T17:31:39.928Z,2.00
2022-10-08T17:34:13.400Z,2.13
2022-10-08T17:36:47.688Z,2.15
2022-10-08T17:39:21.366Z,2.25
2022-10-08T17:41:55.718Z,2.40
2022-10-08T17:44:30.623Z,1.90
2022-10-08T17:47:04.359Z,2.28
2022-10-08T17:49:37.975Z,2.50
2022-10-08T17:52:11.822Z,2.22
2022-10-08T17:54:45.543Z,2.20
2022-10-08T17:57:19.286Z,2.42
2022-10-08T17:59:54.256Z,2.25
2022-10-08T18:02:28.443Z,2.45
2022-10-08T18:05:02.242Z,2.13
2022-10-08T18:07:36.045Z,3.13
2022-10-08T18:10:11.314Z,3.58
2022-10-08T18:12:45.122Z,2.53
2022-10-08T18:15:20.283Z,2.50
2022-10-08T18:17:54.035Z,3.00
2022-10-08T18:20:27.724Z,3.03
2022-10-08T18:23:01.506Z,2.53
2022-10-08T18:25:36.527Z,3.15
2022-10-08T18:28:10.348Z,3.20
2022-10-08T18:30:45.478Z,3.05
2022-10-08T18:33:23.986Z,3.10
2022-10-08T18:38:31.773Z,2.78
2022-10-08T18:41:14.172Z,2.50
2022-10-08T18:43:50.391Z,2.90
2022-10-08T18:46:25.700Z,2.97
2022-10-08T18:49:00.845Z,3.33
2022-10-08T18:51:35.363Z,3.03
2022-10-08T18:54:10.979Z,3.53
2022-10-08T18:56:44.601Z,3.50
2022-10-08T18:59:18.696Z,3.78
2022-10-08T19:01:58.318Z,3.45
2022-10-08T19:04:33.241Z,3.00
2022-10-08T19:07:06.828Z,3.08
2022-10-08T19:09:40.642Z,3.20
2022-10-08T19:12:14.243Z,3.22
2022-10-08T19:14:49.503Z,2.72
2022-10-08T19:17:24.462Z,2.92
2022-10-08T19:19:58.363Z,4.97
2022-10-08T19:22:31.874Z,3.30
2022-10-08T19:25:06.319Z,2.65
2022-10-08T19:27:39.908Z,2.45
2022-10-08T19:30:15.703Z,2.88
2022-10-08T19:32:50.833Z,2.22
2022-10-08T19:35:24.623Z,2.53
2022-10-08T19:37:58.333Z,2.13
2022-10-08T19:40:32.262Z,1.88
2022-10-08T19:43:05.776Z,2.83
2022-10-08T19:45:39.502Z,2.55
2022-10-08T19:48:14.391Z,2.10
2022-10-08T19:50:48.247Z,2.00
2022-10-08T19:53:21.749Z,2.13
2022-10-08T19:55:55.535Z,1.98
2022-10-08T19:58:29.350Z,2.10
2022-10-08T20:01:05.463Z,2.28
2022-10-08T20:03:40.941Z,2.35
2022-10-08T20:06:21.727Z,2.47
2022-10-08T20:09:01.154Z,2.08
2022-10-08T20:11:35.168Z,2.05
2022-10-08T20:14:09.736Z,2.40
2022-10-08T20:16:44.741Z,3.22
2022-10-08T20:19:22.605Z,4.07
2022-10-08T20:21:58.008Z,3.53
2022-10-08T20:24:31.899Z,2.80
2022-10-08T20:27:05.791Z,2.38
2022-10-08T20:29:39.573Z,2.72
2022-10-08T20:32:13.756Z,3.10
2022-10-08T20:34:48.808Z,2.50
2022-10-08T20:37:22.666Z,2.55
2022-10-08T20:39:56.367Z,2.72
2022-10-08T20:42:32.181Z,3.40
2022-10-08T20:45:07.445Z,4.90
2022-10-08T20:47:41.361Z,5.43
2022-10-08T20:50:16.483Z,3.25
2022-10-08T20:52:50.839Z,3.90
2022-10-08T20:55:25.360Z,3.38
2022-10-08T20:57:59.430Z,4.53
2022-10-08T21:00:33.957Z,3.47
2022-10-08T21:03:07.895Z,3.78
2022-10-08T21:05:45.615Z,3.17
2022-10-08T21:08:19.382Z,3.65
2022-10-08T21:10:53.138Z,3.50
2022-10-08T21:13:26.828Z,2.72
2022-10-08T21:16:01.627Z,3.70
2022-10-08T21:18:36.694Z,2.47
2022-10-08T21:21:13.301Z,2.55
2022-10-08T21:23:49.041Z,2.47
2022-10-08T21:26:24.354Z,2.58
2022-10-08T21:28:59.832Z,2.15
2022-10-08T21:31:37.338Z,1.90
2022-10-08T21:34:12.463Z,3.30
2022-10-08T21:36:47.354Z,3.35
2022-10-08T21:39:21.222Z,3.10
2022-10-08T21:41:57.972Z,3.00
2022-10-08T21:44:31.694Z,3.45
2022-10-08T21:47:05.399Z,2.60
2022-10-08T21:49:39.136Z,2.95
2022-10-08T21:52:14.167Z,3.53
2022-10-08T21:54:47.886Z,3.08
2022-10-08T21:57:21.372Z,2.42
2022-10-08T21:59:55.197Z,2.67
2022-10-08T22:02:28.826Z,2.58
2022-10-08T22:05:03.062Z,2.33
2022-10-08T22:07:37.957Z,2.63
2022-10-08T22:10:11.768Z,3.28
2022-10-08T22:12:45.598Z,3.33
2022-10-08T22:15:19.454Z,3.90
2022-10-08T22:17:52.892Z,3.15
2022-10-08T22:20:26.980Z,3.42
2022-10-08T22:23:01.870Z,3.13
2022-10-08T22:25:35.596Z,3.22
2022-10-08T22:28:09.390Z,2.92
2022-10-08T22:30:43.196Z,3.50
2022-10-08T22:33:17.345Z,3.70
2022-10-08T22:35:51.116Z,3.70
2022-10-08T22:38:26.049Z,3.42
2022-10-08T22:41:04.129Z,3.60
2022-10-08T22:43:38.249Z,2.88
2022-10-08T22:46:14.915Z,3.38
2022-10-08T22:48:48.841Z,3.00
2022-10-08T22:51:23.268Z,2.78
2022-10-08T22:53:58.668Z,2.50
2022-10-08T22:56:33.480Z,4.18
2022-10-08T22:59:07.043Z,3.63
2022-10-08T23:01:40.882Z,2.85
2022-10-08T23:04:14.307Z,2.83
2022-10-08T23:06:48.084Z,2.70
2022-10-08T23:09:22.934Z,2.78
2022-10-08T23:11:56.718Z,2.92
2022-10-08T23:14:30.289Z,2.88
2022-10-08T23:17:04.202Z,2.70
2022-10-08T23:19:37.863Z,2.50
2022-10-08T23:22:12.297Z,2.80
2022-10-08T23:24:47.275Z,2.40
2022-10-08T23:27:20.983Z,1.90
2022-10-08T23:29:56.079Z,2.40
2022-10-08T23:32:30.123Z,2.50
2022-10-08T23:35:03.601Z,2.33
2022-10-08T23:37:37.536Z,2.17
2022-10-08T23:40:12.528Z,2.50
2022-10-08T23:42:46.559Z,2.92
2022-10-08T23:45:20.395Z,2.42
2022-10-08T23:47:54.172Z,2.22
2022-10-08T23:50:28.864Z,2.70
2022-10-08T23:53:02.615Z,1.45
2022-10-08T23:55:37.527Z,2.40
2022-10-08T23:58:11.263Z,2.33
